Time;durP1;ratioP1;P1;durP2;ratioP2;P2;SDS_P1;SDS_P2;PMS_P1;PMS_P2;Temp;Humidity;BMP_temperature;BMP_pressure;BME280_temperature;BME280_humidity;BME280_pressure;Samples;Min_cycle;Max_cycle;Signal;HPM_P1;HPM_P2
2022/04/06 00:02:08;;;;;;;37.45;16.35;;;;;;;;;;4981638;28;20271;-78
2022/04/06 00:04:41;;;;;;;41.28;18.10;;;;;;;;;;4956934;28;20066;-77
2022/04/06 00:07:09;;;;;;;30.15;17.20;;;;;;;;;;4941507;28;20051;-78
2022/04/06 00:09:39;;;;;;;40.75;17.02;;;;;;;;;;4970890;28;20109;-79
2022/04/06 00:12:10;;;;;;;37.15;17.30;;;;;;;;;;4937417;28;20082;-78
2022/04/06 00:14:37;;;;;;;32.22;16.92;;;;;;;;;;4965619;28;20050;-77
2022/04/06 00:17:05;;;;;;;36.78;16.95;;;;;;;;;;4975469;28;20047;-77
2022/04/06 00:19:34;;;;;;;37.35;16.55;;;;;;;;;;4938984;28;20051;-77
2022/04/06 00:22:09;;;;;;;42.30;16.90;;;;;;;;;;4954593;28;20078;-83
2022/04/06 00:24:37;;;;;;;33.60;14.95;;;;;;;;;;4966529;28;20149;-72
2022/04/06 00:27:05;;;;;;;27.85;13.35;;;;;;;;;;4936249;28;20106;-74
2022/04/06 00:29:32;;;;;;;29.08;12.55;;;;;;;;;;4931745;28;20046;-73
2022/04/06 00:31:59;;;;;;;25.42;12.20;;;;;;;;;;4950036;28;20071;-72
2022/04/06 00:37:13;;;;;;;26.63;12.85;;;;;;;;;;4966091;28;20136;-73
2022/04/06 00:39:40;;;;;;;24.35;12.55;;;;;;;;;;4949791;28;20090;-74
2022/04/06 00:42:08;;;;;;;26.65;13.40;;;;;;;;;;4949711;29;20519;-73
2022/04/06 00:44:35;;;;;;;33.00;15.10;;;;;;;;;;4948803;29;20511;-73
2022/04/06 00:47:03;;;;;;;35.15;16.52;;;;;;;;;;4949306;29;20515;-74
2022/04/06 00:49:30;;;;;;;39.47;14.85;;;;;;;;;;4948412;29;20047;-74
2022/04/06 00:51:59;;;;;;;32.42;13.75;;;;;;;;;;4949165;28;20083;-73
2022/04/06 00:54:28;;;;;;;28.90;14.68;;;;;;;;;;4931613;29;20265;-72
2022/04/06 00:56:56;;;;;;;37.55;13.38;;;;;;;;;;4948700;28;20451;-74
2022/04/06 00:59:26;;;;;;;28.63;12.27;;;;;;;;;;4931710;29;20130;-73
2022/04/06 01:01:54;;;;;;;31.08;13.73;;;;;;;;;;4940575;29;20047;-75
2022/04/06 01:04:21;;;;;;;23.70;12.10;;;;;;;;;;4949321;29;20047;-72
2022/04/06 01:06:50;;;;;;;29.27;12.80;;;;;;;;;;4961534;28;20236;-73
2022/04/06 01:09:17;;;;;;;30.85;14.35;;;;;;;;;;4962343;28;20303;-74
2022/04/06 01:11:45;;;;;;;27.13;12.95;;;;;;;;;;4955109;28;20039;-74
2022/04/06 01:14:13;;;;;;;33.83;12.05;;;;;;;;;;4948359;29;20126;-75
2022/04/06 01:16:41;;;;;;;30.15;13.00;;;;;;;;;;4959149;28;20342;-73
2022/04/06 01:19:08;;;;;;;27.77;11.82;;;;;;;;;;4952864;28;20381;-72
2022/04/06 01:21:39;;;;;;;29.73;11.45;;;;;;;;;;4947988;28;20138;-73
2022/04/06 01:24:06;;;;;;;28.65;11.35;;;;;;;;;;4948237;29;20047;-74
2022/04/06 01:26:34;;;;;;;24.40;11.82;;;;;;;;;;4947398;28;20082;-73
2022/04/06 01:29:02;;;;;;;38.10;12.98;;;;;;;;;;4950572;28;20129;-73
2022/04/06 01:31:29;;;;;;;29.80;11.20;;;;;;;;;;4930144;29;20209;-72
2022/04/06 01:33:57;;;;;;;24.15;11.80;;;;;;;;;;4933952;28;20411;-75
2022/04/06 01:36:24;;;;;;;29.25;12.23;;;;;;;;;;4942129;28;20598;-73
2022/04/06 01:38:51;;;;;;;30.75;11.82;;;;;;;;;;4947671;29;20490;-72
2022/04/06 01:41:19;;;;;;;31.35;12.60;;;;;;;;;;4947884;28;20114;-74
2022/04/06 01:43:46;;;;;;;26.92;11.63;;;;;;;;;;4948338;29;20134;-74
2022/04/06 01:46:14;;;;;;;35.28;12.05;;;;;;;;;;4946533;28;20211;-73
2022/04/06 01:52:12;;;;;;;24.30;11.60;;;;;;;;;;4947179;28;20051;-73
2022/04/06 01:54:14;;;;;;;30.88;12.85;;;;;;;;;;4948319;29;20102;-73
2022/04/06 01:56:42;;;;;;;25.98;11.85;;;;;;;;;;4947439;29;20066;-72
2022/04/06 01:59:09;;;;;;;39.28;13.30;;;;;;;;;;4951460;28;20043;-75
2022/04/06 02:01:36;;;;;;;37.03;14.20;;;;;;;;;;4959662;28;20057;-74
2022/04/06 02:04:27;;;;;;;25.80;12.23;;;;;;;;;;4949100;28;20082;-72
2022/04/06 02:06:54;;;;;;;27.55;12.05;;;;;;;;;;4951704;28;20089;-75
2022/04/06 02:09:22;;;;;;;33.05;13.05;;;;;;;;;;4947659;29;20047;-74
2022/04/06 02:11:49;;;;;;;23.33;11.07;;;;;;;;;;4960831;28;20085;-72
2022/04/06 02:14:17;;;;;;;26.80;12.60;;;;;;;;;;4959617;28;20043;-73
2022/04/06 02:16:44;;;;;;;30.88;12.68;;;;;;;;;;4946684;29;20050;-73
2022/04/06 02:19:12;;;;;;;32.45;13.43;;;;;;;;;;4951384;28;20040;-74
2022/04/06 02:21:39;;;;;;;31.08;14.65;;;;;;;;;;4947541;29;20075;-72
2022/04/06 02:24:06;;;;;;;33.72;15.38;;;;;;;;;;4930155;29;20078;-72
2022/04/06 02:26:34;;;;;;;29.15;15.35;;;;;;;;;;4916385;28;20125;-74
2022/04/06 02:29:01;;;;;;;33.88;16.77;;;;;;;;;;4930088;29;20345;-73
2022/04/06 02:31:29;;;;;;;40.63;15.75;;;;;;;;;;4947102;29;20150;-72
2022/04/06 02:33:56;;;;;;;24.42;12.70;;;;;;;;;;4947751;29;20043;-73
2022/04/06 02:36:23;;;;;;;34.83;14.00;;;;;;;;;;4921259;28;20069;-75
2022/04/06 02:38:51;;;;;;;36.17;14.95;;;;;;;;;;4934591;28;20098;-73
2022/04/06 02:41:19;;;;;;;25.75;12.63;;;;;;;;;;4953791;28;20090;-75
2022/04/06 02:43:46;;;;;;;31.92;14.85;;;;;;;;;;4949077;28;20077;-74
2022/04/06 02:46:13;;;;;;;29.63;13.48;;;;;;;;;;4930340;29;20051;-73
2022/04/06 02:48:41;;;;;;;40.30;15.63;;;;;;;;;;4948500;29;20142;-75
2022/04/06 02:51:08;;;;;;;27.30;13.55;;;;;;;;;;4914985;29;20039;-74
2022/04/06 02:53:36;;;;;;;31.92;14.55;;;;;;;;;;4948479;29;20055;-73
2022/04/06 02:56:04;;;;;;;35.92;14.35;;;;;;;;;;4947182;28;20043;-73
2022/04/06 02:58:31;;;;;;;31.83;13.98;;;;;;;;;;4929916;29;20146;-74
2022/04/06 03:00:59;;;;;;;38.50;16.08;;;;;;;;;;4947805;29;20043;-74
2022/04/06 03:03:26;;;;;;;32.58;14.48;;;;;;;;;;4950407;28;20074;-72
2022/04/06 03:05:54;;;;;;;33.03;15.27;;;;;;;;;;4961767;28;20078;-72
2022/04/06 03:08:21;;;;;;;29.35;13.52;;;;;;;;;;4948906;29;20075;-72
2022/04/06 03:10:48;;;;;;;19.27;10.35;;;;;;;;;;4953712;28;20517;-72
2022/04/06 03:13:16;;;;;;;25.80;12.80;;;;;;;;;;4952841;28;20211;-72
2022/04/06 03:15:43;;;;;;;16.88;11.13;;;;;;;;;;4931316;29;20036;-72
2022/04/06 03:18:11;;;;;;;23.35;13.52;;;;;;;;;;4948582;29;20049;-73
2022/04/06 03:20:38;;;;;;;22.25;12.63;;;;;;;;;;4947918;29;20043;-76
2022/04/06 03:23:06;;;;;;;25.35;14.00;;;;;;;;;;4949569;29;20057;-73
2022/04/06 03:25:33;;;;;;;21.30;12.93;;;;;;;;;;4932500;29;20051;-73
2022/04/06 03:28:01;;;;;;;26.73;14.30;;;;;;;;;;4949661;29;20423;-75
2022/04/06 03:30:28;;;;;;;26.27;13.80;;;;;;;;;;4949102;28;20039;-73
2022/04/06 03:32:55;;;;;;;24.95;14.02;;;;;;;;;;4967191;28;20042;-74
2022/04/06 03:35:23;;;;;;;32.38;14.63;;;;;;;;;;4934278;28;20043;-72
2022/04/06 03:37:51;;;;;;;28.13;14.40;;;;;;;;;;4931390;29;20415;-72
2022/04/06 03:40:19;;;;;;;30.25;15.73;;;;;;;;;;4947474;28;21163;-73
2022/04/06 03:42:47;;;;;;;35.50;16.63;;;;;;;;;;4950278;28;20043;-72
2022/04/06 03:45:14;;;;;;;40.47;21.02;;;;;;;;;;4964285;28;20043;-75
2022/04/06 03:47:44;;;;;;;48.70;22.35;;;;;;;;;;4950174;29;20055;-74
2022/04/06 03:50:12;;;;;;;59.78;22.90;;;;;;;;;;4950131;29;20134;-74
2022/04/06 03:52:39;;;;;;;41.40;21.27;;;;;;;;;;4950147;29;20407;-73
2022/04/06 03:55:08;;;;;;;40.05;21.10;;;;;;;;;;4950796;29;20044;-73
2022/04/06 03:57:38;;;;;;;38.92;19.70;;;;;;;;;;4949816;29;20074;-73
2022/04/06 04:00:08;;;;;;;35.45;18.85;;;;;;;;;;4950535;29;20054;-73
2022/04/06 04:02:36;;;;;;;40.88;19.90;;;;;;;;;;4949461;29;20039;-76
2022/04/06 04:05:03;;;;;;;32.08;17.92;;;;;;;;;;4966016;28;20039;-73
2022/04/06 04:07:37;;;;;;;34.67;18.42;;;;;;;;;;4950761;28;20107;-72
2022/04/06 04:10:06;;;;;;;33.80;17.58;;;;;;;;;;4949853;29;20050;-73
2022/04/06 04:12:34;;;;;;;22.75;13.95;;;;;;;;;;4949064;28;20051;-76
2022/04/06 04:15:01;;;;;;;24.00;13.65;;;;;;;;;;4948761;29;20066;-73
2022/04/06 04:17:29;;;;;;;22.15;12.73;;;;;;;;;;4949854;29;20055;-73
2022/04/06 04:19:56;;;;;;;28.38;14.85;;;;;;;;;;4949709;29;20059;-75
2022/04/06 04:22:23;;;;;;;24.75;13.43;;;;;;;;;;4968217;28;20047;-72
2022/04/06 04:24:51;;;;;;;20.35;13.10;;;;;;;;;;4969028;28;20093;-73
2022/04/06 04:27:18;;;;;;;27.17;14.20;;;;;;;;;;4952209;28;20558;-75
2022/04/06 04:29:46;;;;;;;27.00;13.48;;;;;;;;;;4949510;29;20044;-72
2022/04/06 04:32:15;;;;;;;27.13;14.25;;;;;;;;;;4927625;28;20138;-72
2022/04/06 04:34:42;;;;;;;25.85;15.10;;;;;;;;;;4959965;28;20062;-72
2022/04/06 04:37:10;;;;;;;22.73;14.18;;;;;;;;;;4951738;28;20045;-72
2022/04/06 04:39:37;;;;;;;26.63;14.32;;;;;;;;;;4931749;29;20117;-74
2022/04/06 04:42:05;;;;;;;30.45;15.05;;;;;;;;;;4957072;28;20491;-72
2022/04/06 04:44:32;;;;;;;22.75;13.07;;;;;;;;;;4949937;28;20578;-72
2022/04/06 04:47:00;;;;;;;29.33;15.60;;;;;;;;;;4949818;28;20047;-76
2022/04/06 04:49:27;;;;;;;31.38;16.77;;;;;;;;;;4954108;28;20046;-75
2022/04/06 04:51:58;;;;;;;35.70;18.08;;;;;;;;;;4949847;28;20035;-75
2022/04/06 04:54:26;;;;;;;31.80;15.32;;;;;;;;;;4958376;28;20081;-73
2022/04/06 04:56:56;;;;;;;27.60;14.87;;;;;;;;;;4948913;29;20066;-74
2022/04/06 04:59:25;;;;;;;42.55;17.52;;;;;;;;;;4948854;29;20051;-73
2022/04/06 05:01:52;;;;;;;33.83;16.15;;;;;;;;;;4948916;29;20126;-74
2022/04/06 05:04:20;;;;;;;26.38;14.27;;;;;;;;;;4949008;29;20098;-72
2022/04/06 05:06:48;;;;;;;30.42;14.27;;;;;;;;;;4948316;28;20075;-72
2022/04/06 05:09:15;;;;;;;30.10;14.70;;;;;;;;;;4934556;29;20056;-76
2022/04/06 05:11:43;;;;;;;18.95;12.50;;;;;;;;;;4941555;29;20156;-73
2022/04/06 05:14:10;;;;;;;21.27;13.02;;;;;;;;;;4931140;29;20085;-72
2022/04/06 05:16:37;;;;;;;18.63;12.30;;;;;;;;;;4939258;28;20056;-74
2022/04/06 05:19:05;;;;;;;16.88;11.25;;;;;;;;;;4944591;28;20043;-72
2022/04/06 05:21:32;;;;;;;21.90;12.88;;;;;;;;;;4942138;28;20046;-74
2022/04/06 05:23:59;;;;;;;21.67;13.00;;;;;;;;;;4949508;28;20496;-73
2022/04/06 05:26:27;;;;;;;21.95;13.30;;;;;;;;;;4946858;28;20499;-72
2022/04/06 05:28:55;;;;;;;24.23;13.07;;;;;;;;;;4965202;28;20073;-73
2022/04/06 05:31:22;;;;;;;26.17;13.35;;;;;;;;;;4948193;28;20047;-75
2022/04/06 05:33:49;;;;;;;22.52;12.75;;;;;;;;;;4966360;28;20245;-72
2022/04/06 05:36:19;;;;;;;21.42;12.73;;;;;;;;;;4938538;28;20035;-72
2022/04/06 05:38:47;;;;;;;19.08;11.90;;;;;;;;;;4952834;28;20044;-75
2022/04/06 05:41:14;;;;;;;26.58;13.82;;;;;;;;;;4945068;28;20066;-73
2022/04/06 05:43:41;;;;;;;20.05;11.20;;;;;;;;;;4946062;29;20051;-73
2022/04/06 05:46:09;;;;;;;29.48;14.68;;;;;;;;;;4946607;28;20051;-75
2022/04/06 05:48:36;;;;;;;26.08;14.32;;;;;;;;;;4940551;28;20094;-71
2022/04/06 05:51:04;;;;;;;23.20;13.80;;;;;;;;;;4946307;28;20126;-73
2022/04/06 05:53:31;;;;;;;23.88;14.77;;;;;;;;;;4927859;29;20529;-74
2022/04/06 05:55:59;;;;;;;17.92;11.48;;;;;;;;;;4943299;28;20066;-72
2022/04/06 05:58:26;;;;;;;23.25;12.05;;;;;;;;;;4946977;29;20206;-72
2022/04/06 06:00:54;;;;;;;23.58;13.85;;;;;;;;;;4927802;29;20045;-76
2022/04/06 06:03:21;;;;;;;29.95;19.75;;;;;;;;;;4951287;28;20051;-74
2022/04/06 06:05:49;;;;;;;23.15;13.82;;;;;;;;;;4932992;29;20499;-72
2022/04/06 06:08:18;;;;;;;22.48;13.20;;;;;;;;;;4946618;28;20396;-77
2022/04/06 06:10:46;;;;;;;20.73;13.20;;;;;;;;;;4957341;28;20138;-75
2022/04/06 06:13:13;;;;;;;23.25;13.30;;;;;;;;;;4955492;28;20662;-73
2022/04/06 06:15:41;;;;;;;24.08;13.32;;;;;;;;;;4962788;28;20462;-73
2022/04/06 06:18:08;;;;;;;18.83;12.20;;;;;;;;;;4948337;28;20219;-73
2022/04/06 06:20:36;;;;;;;19.63;13.18;;;;;;;;;;4957709;28;20066;-73
2022/04/06 06:23:03;;;;;;;20.42;12.73;;;;;;;;;;4970279;23;20046;-80
2022/04/06 06:25:31;;;;;;;19.40;13.07;;;;;;;;;;4958592;28;20038;-78
2022/04/06 06:27:58;;;;;;;22.58;13.88;;;;;;;;;;4961432;28;20038;-78
2022/04/06 06:30:27;;;;;;;21.13;13.43;;;;;;;;;;4977465;28;20102;-81
2022/04/06 06:32:55;;;;;;;18.77;12.93;;;;;;;;;;4968152;28;20104;-77
2022/04/06 06:35:26;;;;;;;17.88;11.85;;;;;;;;;;4976405;28;21481;-78
2022/04/06 06:38:25;;;;;;;20.30;12.48;;;;;;;;;;4963579;28;20046;-79
2022/04/06 06:40:53;;;;;;;22.38;13.02;;;;;;;;;;4967874;28;20423;-77
2022/04/06 06:43:21;;;;;;;17.83;12.30;;;;;;;;;;4966060;28;20146;-78
2022/04/06 06:45:49;;;;;;;14.57;11.27;;;;;;;;;;4980629;28;20090;-79
2022/04/06 06:48:17;;;;;;;16.33;11.88;;;;;;;;;;4950937;28;20062;-78
2022/04/06 06:50:44;;;;;;;18.90;13.25;;;;;;;;;;4967549;28;20066;-79
2022/04/06 06:53:11;;;;;;;14.95;11.75;;;;;;;;;;4969686;28;20557;-78
2022/04/06 06:55:39;;;;;;;15.57;11.05;;;;;;;;;;4972873;28;20546;-82
2022/04/06 06:58:07;;;;;;;16.15;11.55;;;;;;;;;;4968649;28;20063;-77
2022/04/06 07:00:34;;;;;;;12.82;9.52;;;;;;;;;;4959244;28;20046;-76
2022/04/06 07:03:01;;;;;;;12.80;8.18;;;;;;;;;;4965372;28;20050;-79
2022/04/06 07:05:29;;;;;;;13.38;8.90;;;;;;;;;;4951132;28;20146;-77
2022/04/06 07:07:58;;;;;;;10.65;9.00;;;;;;;;;;4968410;28;20047;-77
2022/04/06 07:10:26;;;;;;;10.15;8.07;;;;;;;;;;4951964;28;20698;-82
2022/04/06 07:12:54;;;;;;;8.90;6.68;;;;;;;;;;4967122;28;20414;-78
2022/04/06 07:15:22;;;;;;;8.93;6.93;;;;;;;;;;4971174;28;20046;-78
2022/04/06 07:17:56;;;;;;;7.75;6.50;;;;;;;;;;4951786;28;20113;-78
2022/04/06 07:20:25;;;;;;;6.63;6.03;;;;;;;;;;4956644;28;20043;-78
2022/04/06 07:22:52;;;;;;;6.00;5.40;;;;;;;;;;4967699;28;20050;-80
2022/04/06 07:25:20;;;;;;;8.95;5.25;;;;;;;;;;4979442;28;20057;-78
2022/04/06 07:27:47;;;;;;;5.70;5.03;;;;;;;;;;4979716;28;20042;-78
2022/04/06 07:30:15;;;;;;;5.47;4.97;;;;;;;;;;4969205;28;20038;-79
2022/04/06 07:32:43;;;;;;;5.72;5.13;;;;;;;;;;4969646;28;20043;-78
2022/04/06 07:35:10;;;;;;;5.05;4.65;;;;;;;;;;4968379;28;20122;-78
2022/04/06 07:37:38;;;;;;;5.82;4.63;;;;;;;;;;4968734;28;20079;-78
2022/04/06 07:40:10;;;;;;;5.78;5.13;;;;;;;;;;4970113;28;20053;-78
2022/04/06 07:42:38;;;;;;;6.05;4.65;;;;;;;;;;4948456;29;20582;-78
2022/04/06 07:45:09;;;;;;;5.47;4.97;;;;;;;;;;4941563;28;20074;-79
2022/04/06 07:47:40;;;;;;;5.30;4.80;;;;;;;;;;4952948;28;20064;-77
2022/04/06 07:50:08;;;;;;;4.82;4.43;;;;;;;;;;4969682;28;20195;-77
2022/04/06 07:52:36;;;;;;;4.88;4.40;;;;;;;;;;4970196;28;20039;-77
2022/04/06 07:55:07;;;;;;;6.78;4.43;;;;;;;;;;4969499;28;20043;-77
2022/04/06 07:57:35;;;;;;;3.53;3.33;;;;;;;;;;4970758;28;20169;-78
2022/04/06 08:00:05;;;;;;;4.88;4.47;;;;;;;;;;4953610;28;20078;-81
2022/04/06 08:02:33;;;;;;;9.45;4.65;;;;;;;;;;4947775;29;20559;-81
2022/04/06 08:05:01;;;;;;;8.50;4.70;;;;;;;;;;4937359;28;20118;-80
2022/04/06 08:07:29;;;;;;;10.18;4.40;;;;;;;;;;4952159;28;20399;-78
2022/04/06 08:09:56;;;;;;;3.83;3.25;;;;;;;;;;4933215;29;20043;-77
2022/04/06 08:12:24;;;;;;;3.90;3.60;;;;;;;;;;4963473;28;20387;-80
2022/04/06 08:14:51;;;;;;;4.20;3.90;;;;;;;;;;4956717;28;20070;-78
2022/04/06 08:17:19;;;;;;;3.97;3.67;;;;;;;;;;4952698;28;20053;-77
2022/04/06 08:19:46;;;;;;;10.23;4.38;;;;;;;;;;4970850;28;20105;-78
2022/04/06 08:22:15;;;;;;;3.58;3.28;;;;;;;;;;4967859;28;20078;-79
2022/04/06 08:24:42;;;;;;;5.68;3.42;;;;;;;;;;4969022;28;20073;-80
2022/04/06 08:27:09;;;;;;;12.70;4.35;;;;;;;;;;4952163;28;20550;-77
2022/04/06 08:29:37;;;;;;;4.00;3.60;;;;;;;;;;4956107;28;20131;-78
2022/04/06 08:32:05;;;;;;;5.75;4.50;;;;;;;;;;4940506;28;20510;-78
2022/04/06 08:34:32;;;;;;;3.63;3.33;;;;;;;;;;4952174;28;20054;-81
2022/04/06 08:37:02;;;;;;;4.40;4.10;;;;;;;;;;4970099;28;20035;-78
2022/04/06 08:39:29;;;;;;;12.05;4.20;;;;;;;;;;4965908;28;20047;-77
2022/04/06 08:42:10;;;;;;;5.57;3.88;;;;;;;;;;4961734;28;20051;-78
2022/04/06 08:44:59;;;;;;;4.55;4.25;;;;;;;;;;4967881;28;20081;-77
2022/04/06 08:47:26;;;;;;;4.00;3.70;;;;;;;;;;4951463;28;20654;-78
2022/04/06 08:49:55;;;;;;;5.13;3.53;;;;;;;;;;4955388;28;20551;-78
2022/04/06 08:52:23;;;;;;;5.78;4.55;;;;;;;;;;4954174;28;20074;-78
2022/04/06 08:55:12;;;;;;;6.28;3.95;;;;;;;;;;4958496;28;20189;-81
2022/04/06 08:57:41;;;;;;;6.97;4.20;;;;;;;;;;4967120;28;20046;-80
2022/04/06 09:00:10;;;;;;;4.95;4.20;;;;;;;;;;4966151;28;20070;-78
2022/04/06 09:02:37;;;;;;;4.63;4.32;;;;;;;;;;4963597;28;20042;-78
2022/04/06 09:05:05;;;;;;;4.03;3.72;;;;;;;;;;4967138;28;20045;-77
2022/04/06 09:07:32;;;;;;;4.10;3.80;;;;;;;;;;4938868;28;20049;-79
2022/04/06 09:10:00;;;;;;;13.43;4.75;;;;;;;;;;4967237;28;20125;-77
2022/04/06 09:12:28;;;;;;;7.32;4.93;;;;;;;;;;4968088;28;20080;-78
2022/04/06 09:15:06;;;;;;;4.97;4.57;;;;;;;;;;4951599;28;20251;-78
2022/04/06 09:17:47;;;;;;;5.22;4.70;;;;;;;;;;4951942;28;20419;-78
2022/04/06 09:20:15;;;;;;;5.28;4.88;;;;;;;;;;4969217;28;20075;-79
2022/04/06 09:22:48;;;;;;;8.35;5.38;;;;;;;;;;4969621;28;20055;-80
2022/04/06 09:25:16;;;;;;;7.53;5.00;;;;;;;;;;4981676;28;20133;-81
2022/04/06 09:27:44;;;;;;;5.45;4.82;;;;;;;;;;4956277;28;20149;-78
2022/04/06 09:30:11;;;;;;;6.43;5.15;;;;;;;;;;4970608;28;20481;-79
2022/04/06 09:32:41;;;;;;;8.10;5.43;;;;;;;;;;4968631;28;20494;-77
2022/04/06 09:35:35;;;;;;;7.32;5.32;;;;;;;;;;4968306;28;20492;-78
2022/04/06 09:38:10;;;;;;;7.20;4.78;;;;;;;;;;4949922;28;20061;-78
2022/04/06 09:40:40;;;;;;;9.27;4.82;;;;;;;;;;4972953;28;20043;-78
2022/04/06 09:43:08;;;;;;;14.93;5.47;;;;;;;;;;4967752;28;20046;-78
2022/04/06 09:48:22;;;;;;;5.88;4.60;;;;;;;;;;4949356;28;20049;-79
2022/04/06 09:50:55;;;;;;;5.35;4.88;;;;;;;;;;4966543;28;20138;-79
2022/04/06 09:53:27;;;;;;;6.40;4.25;;;;;;;;;;4950940;28;20391;-79
2022/04/06 09:55:56;;;;;;;4.45;4.15;;;;;;;;;;4964714;28;20043;-79
2022/04/06 09:58:23;;;;;;;4.88;4.45;;;;;;;;;;4967483;28;20153;-79
2022/04/06 10:00:51;;;;;;;6.72;4.10;;;;;;;;;;4965422;28;20046;-77
2022/04/06 10:03:20;;;;;;;5.25;4.40;;;;;;;;;;4962736;28;20050;-79
2022/04/06 10:05:49;;;;;;;5.30;4.38;;;;;;;;;;4959936;28;20050;-77
2022/04/06 10:08:20;;;;;;;4.20;3.80;;;;;;;;;;4966306;28;20062;-78
2022/04/06 10:10:50;;;;;;;4.45;3.80;;;;;;;;;;4966358;28;20043;-78
2022/04/06 10:13:19;;;;;;;21.55;4.97;;;;;;;;;;4969976;28;20477;-78
2022/04/06 10:16:12;;;;;;;26.02;4.80;;;;;;;;;;4950345;28;20491;-78
2022/04/06 10:18:41;;;;;;;13.65;4.80;;;;;;;;;;4965951;28;20422;-78
2022/04/06 10:21:16;;;;;;;8.27;4.53;;;;;;;;;;4967776;28;20047;-81
2022/04/06 10:23:46;;;;;;;4.43;3.92;;;;;;;;;;4964958;28;20070;-79
2022/04/06 10:26:20;;;;;;;5.07;3.70;;;;;;;;;;4968411;28;20101;-77
2022/04/06 10:28:51;;;;;;;6.18;3.90;;;;;;;;;;4968898;28;20051;-78
2022/04/06 10:31:22;;;;;;;5.78;3.90;;;;;;;;;;4948077;28;20071;-78
2022/04/06 10:33:50;;;;;;;18.52;4.63;;;;;;;;;;4954206;28;20074;-77
2022/04/06 10:36:18;;;;;;;8.32;3.63;;;;;;;;;;4977783;28;20035;-77
2022/04/06 10:39:08;;;;;;;3.67;3.47;;;;;;;;;;4951284;28;20125;-78
2022/04/06 10:41:39;;;;;;;7.05;4.40;;;;;;;;;;4970946;28;20047;-77
2022/04/06 10:44:34;;;;;;;7.28;3.53;;;;;;;;;;4967265;28;20053;-79
2022/04/06 10:47:08;;;;;;;3.00;2.80;;;;;;;;;;4964195;28;20177;-79
2022/04/06 10:49:35;;;;;;;13.15;3.47;;;;;;;;;;4966329;28;20066;-78
2022/04/06 10:52:18;;;;;;;3.33;2.78;;;;;;;;;;4948199;28;20142;-80
2022/04/06 10:54:46;;;;;;;6.05;2.70;;;;;;;;;;4964816;28;20050;-77
2022/04/06 10:57:48;;;;;;;3.00;2.80;;;;;;;;;;4965544;28;20062;-81
2022/04/06 11:00:16;;;;;;;4.85;3.05;;;;;;;;;;4947162;28;20047;-78
2022/04/06 11:02:49;;;;;;;2.45;2.35;;;;;;;;;;4966039;28;20498;-78
2022/04/06 11:05:35;;;;;;;5.80;2.85;;;;;;;;;;4947549;28;20496;-77
2022/04/06 11:10:49;;;;;;;6.75;2.20;;;;;;;;;;4954297;28;20049;-79
2022/04/06 11:13:35;;;;;;;2.00;1.90;;;;;;;;;;4961453;28;20538;-77
2022/04/06 11:16:06;;;;;;;4.57;2.30;;;;;;;;;;4958428;28;20411;-79
2022/04/06 11:18:46;;;;;;;2.10;2.00;;;;;;;;;;4953475;28;20446;-79
2022/04/06 11:21:14;;;;;;;4.43;2.10;;;;;;;;;;4933508;28;20055;-79
2022/04/06 11:23:42;;;;;;;2.25;2.00;;;;;;;;;;4938497;28;20392;-79
2022/04/06 11:26:10;;;;;;;1.90;1.80;;;;;;;;;;4950339;28;20030;-80
2022/04/06 11:28:37;;;;;;;2.00;1.90;;;;;;;;;;4951295;28;20496;-78
2022/04/06 11:31:05;;;;;;;2.33;2.05;;;;;;;;;;4955094;28;20043;-79
2022/04/06 11:33:39;;;;;;;2.10;1.88;;;;;;;;;;4958654;28;20034;-78
2022/04/06 11:36:16;;;;;;;2.55;1.77;;;;;;;;;;4960741;28;20035;-78
2022/04/06 11:42:58;;;;;;;3.80;2.07;;;;;;;;;;4953921;28;20203;-78
2022/04/06 11:45:27;;;;;;;2.60;1.92;;;;;;;;;;4953068;28;21531;-79
2022/04/06 11:47:55;;;;;;;1.90;1.80;;;;;;;;;;4953172;28;20594;-78
2022/04/06 11:50:28;;;;;;;1.88;1.77;;;;;;;;;;4960758;28;20463;-78
2022/04/06 11:52:56;;;;;;;10.90;2.83;;;;;;;;;;4953364;28;20133;-79
2022/04/06 11:55:39;;;;;;;5.88;2.40;;;;;;;;;;4940848;28;20047;-78
2022/04/06 11:58:06;;;;;;;3.72;2.10;;;;;;;;;;4952818;28;20050;-79
2022/04/06 12:00:35;;;;;;;2.03;1.55;;;;;;;;;;4939266;28;20493;-80
2022/04/06 12:03:02;;;;;;;2.00;1.90;;;;;;;;;;4951666;28;20050;-79
2022/04/06 12:05:33;;;;;;;8.85;2.55;;;;;;;;;;4951374;28;20161;-79
2022/04/06 12:08:07;;;;;;;4.45;2.08;;;;;;;;;;4953664;28;20077;-80
2022/04/06 12:10:34;;;;;;;3.42;1.70;;;;;;;;;;4955043;28;20043;-80
2022/04/06 12:13:39;;;;;;;8.25;1.88;;;;;;;;;;4934577;28;20177;-78
2022/04/06 12:16:07;;;;;;;1.85;1.75;;;;;;;;;;4961462;28;20077;-79
2022/04/06 12:18:37;;;;;;;1.75;1.67;;;;;;;;;;4959712;28;20049;-79
2022/04/06 12:21:18;;;;;;;1.70;1.60;;;;;;;;;;4943737;28;20128;-79
2022/04/06 12:23:46;;;;;;;1.90;1.80;;;;;;;;;;4931493;28;20042;-80
2022/04/06 12:26:15;;;;;;;2.00;1.85;;;;;;;;;;4944821;28;20039;-79
2022/04/06 12:28:45;;;;;;;2.00;1.90;;;;;;;;;;4942317;28;20047;-79
2022/04/06 12:31:13;;;;;;;2.10;2.00;;;;;;;;;;4942425;28;20574;-80
2022/04/06 12:33:44;;;;;;;2.10;1.77;;;;;;;;;;4929685;28;20746;-79
2022/04/06 12:36:23;;;;;;;1.83;1.75;;;;;;;;;;4968592;28;20142;-78
2022/04/06 12:38:58;;;;;;;2.63;2.00;;;;;;;;;;4950558;28;20154;-77
2022/04/06 12:41:26;;;;;;;1.90;1.80;;;;;;;;;;4948309;28;20102;-78
2022/04/06 12:43:54;;;;;;;1.80;1.65;;;;;;;;;;4929103;28;20043;-77
2022/04/06 12:46:38;;;;;;;3.92;1.80;;;;;;;;;;4950317;28;20133;-77
2022/04/06 12:49:24;;;;;;;2.00;1.90;;;;;;;;;;4950097;28;20137;-78
2022/04/06 12:52:12;;;;;;;2.00;1.90;;;;;;;;;;4946803;28;20050;-77
2022/04/06 12:54:40;;;;;;;2.17;1.80;;;;;;;;;;4952506;28;20045;-78
2022/04/06 12:57:13;;;;;;;5.40;1.95;;;;;;;;;;4960682;28;20415;-78
2022/04/06 12:59:41;;;;;;;1.90;1.80;;;;;;;;;;4960131;28;20549;-77
2022/04/06 13:02:19;;;;;;;1.88;1.70;;;;;;;;;;4949556;28;20054;-78
2022/04/06 13:04:46;;;;;;;3.63;1.80;;;;;;;;;;4950969;28;20423;-77
2022/04/06 13:07:13;;;;;;;3.25;1.70;;;;;;;;;;4947711;28;20430;-77
2022/04/06 13:10:01;;;;;;;1.95;1.85;;;;;;;;;;4935363;28;20400;-78
2022/04/06 13:12:31;;;;;;;1.92;1.80;;;;;;;;;;4925489;28;20047;-77
2022/04/06 13:15:04;;;;;;;2.90;1.90;;;;;;;;;;4932323;28;20530;-78
2022/04/06 13:17:31;;;;;;;4.50;1.77;;;;;;;;;;4942488;28;20043;-77
2022/04/06 13:19:59;;;;;;;6.20;3.17;;;;;;;;;;4936924;28;20074;-77
2022/04/06 13:22:27;;;;;;;1.70;1.55;;;;;;;;;;4939331;28;20406;-77
2022/04/06 13:24:54;;;;;;;3.30;1.70;;;;;;;;;;4945024;28;20055;-78
2022/04/06 13:27:22;;;;;;;2.30;1.52;;;;;;;;;;4960458;28;20089;-77
2022/04/06 13:29:49;;;;;;;1.30;1.20;;;;;;;;;;4945186;28;20133;-78
2022/04/06 13:32:17;;;;;;;3.10;1.60;;;;;;;;;;4963307;28;20094;-78
2022/04/06 13:34:45;;;;;;;2.00;1.90;;;;;;;;;;4962826;28;20074;-79
2022/04/06 13:37:15;;;;;;;1.75;1.65;;;;;;;;;;4966447;28;20042;-77
2022/04/06 13:39:43;;;;;;;1.90;1.80;;;;;;;;;;4964522;28;20129;-78
2022/04/06 13:42:18;;;;;;;1.65;1.55;;;;;;;;;;4961824;28;20042;-78
2022/04/06 13:45:02;;;;;;;1.75;1.65;;;;;;;;;;4959969;28;20388;-78
2022/04/06 13:47:30;;;;;;;1.27;1.27;;;;;;;;;;4961556;28;20324;-77
2022/04/06 13:49:57;;;;;;;1.55;1.45;;;;;;;;;;4959848;28;20047;-78
2022/04/06 13:52:24;;;;;;;2.40;1.63;;;;;;;;;;4969801;28;20066;-79
2022/04/06 13:54:53;;;;;;;2.25;1.30;;;;;;;;;;4977223;28;20042;-77
2022/04/06 13:57:21;;;;;;;6.38;1.60;;;;;;;;;;4963882;28;20049;-77
2022/04/06 13:59:48;;;;;;;1.33;1.20;;;;;;;;;;4947030;28;20101;-79
2022/04/06 14:02:16;;;;;;;1.88;1.42;;;;;;;;;;4963365;28;20078;-79
2022/04/06 14:04:44;;;;;;;1.00;1.00;;;;;;;;;;4973266;28;20514;-78
2022/04/06 14:07:11;;;;;;;2.35;1.30;;;;;;;;;;4964280;28;20460;-78
2022/04/06 14:09:39;;;;;;;2.17;1.23;;;;;;;;;;4970821;28;20568;-78
2022/04/06 14:12:07;;;;;;;2.10;2.00;;;;;;;;;;4963295;28;20137;-77
2022/04/06 14:14:34;;;;;;;1.45;1.35;;;;;;;;;;4968681;28;20047;-77
2022/04/06 14:17:01;;;;;;;1.20;1.20;;;;;;;;;;4961329;28;20505;-79
2022/04/06 14:19:31;;;;;;;1.25;1.20;;;;;;;;;;4963723;28;20371;-79
2022/04/06 14:22:01;;;;;;;1.70;1.60;;;;;;;;;;4963130;28;20793;-78
2022/04/06 14:24:28;;;;;;;1.67;1.40;;;;;;;;;;4965334;28;20329;-79
2022/04/06 14:26:56;;;;;;;2.35;1.50;;;;;;;;;;4967280;28;20434;-77
2022/04/06 14:29:23;;;;;;;1.40;1.30;;;;;;;;;;4979438;28;20057;-77
2022/04/06 14:31:52;;;;;;;2.45;1.42;;;;;;;;;;4945930;28;20053;-78
2022/04/06 14:34:20;;;;;;;2.45;1.30;;;;;;;;;;4977802;28;20046;-78
2022/04/06 14:36:47;;;;;;;1.45;1.30;;;;;;;;;;4964759;28;20057;-78
2022/04/06 14:39:15;;;;;;;1.60;1.50;;;;;;;;;;4963845;28;20065;-78
2022/04/06 14:41:42;;;;;;;4.80;1.40;;;;;;;;;;4964455;28;20439;-78
2022/04/06 14:44:09;;;;;;;1.20;1.20;;;;;;;;;;4959647;28;20053;-77
2022/04/06 14:46:37;;;;;;;2.65;1.40;;;;;;;;;;4961364;28;20125;-77
2022/04/06 14:49:04;;;;;;;1.15;1.15;;;;;;;;;;4964967;28;20045;-78
2022/04/06 14:51:32;;;;;;;2.05;1.02;;;;;;;;;;4968408;28;20463;-78
2022/04/06 14:54:00;;;;;;;1.58;1.48;;;;;;;;;;4963400;28;20058;-77
2022/04/06 14:56:27;;;;;;;1.42;1.33;;;;;;;;;;4944546;28;20039;-77
2022/04/06 14:58:55;;;;;;;3.50;1.60;;;;;;;;;;4964711;28;20038;-78
2022/04/06 15:01:22;;;;;;;2.72;1.50;;;;;;;;;;4964958;28;20373;-78